map of PEM home
PEM - Airport
Location
City:  Puerto Maldonado, Madre de Dios, Perú
Name:Padre Aldamiz International Airport
ICAO:SPTU
IATA:PEM

Details
Type:Airport (Aerodrome, Airfield)
Use:Public/Civil, Military, International (customs port of entry)
Latitude:12°36'50"S (-12.613830)
Longitude:69°13'43"W (-69.228677)
Elevation:659 ft (201 m)
Variation:8.20°W (WMM2015 magnetic declination)
-0.19° annual change
Runways:1
Longest:11483 × 148 ft (3500 × 45 m), paved

Time
Time Zone:UTC-5
Local Time:

Weather
METAR:SPTU 181400Z 27009KT 230V300 CAVOK 28/22 Q1010 RMK BIRD HAZARD RWY 01/19 PP000
TAF:SPTU 181100Z 1812/1912 26003KT CAVOK TX33/1819Z TN22/1911Z
TEMPO 1812/1817 BKN080

Related Locations
Nearby:
Farthest:TBB: 12346 mi / 19868 km
Tuy Hòa (Dong Tac), VN

Find:

   beyond  
but within

Other Information
Maps:
NOTAMs:
Links:
Sources:

  
  • flag of Perú
  • flag of Madre de Dios
  

Sectional Chart

Flight Planning
at skyvector.com

Satellite Image

Google Maps Satellite view

 

Copyright © 2004-2018 Karl L. Swartz. All rights reserved.
The Great Circle Mapper name and logo are trademarks of the Great Circle Mapper.
All other trademarks mentioned herein belong to their respective owners.
Please see credits for attibutions and further copyright information.

  Follow gcmap on Facebook Follow gcmap on Twitter Follow gcmap on Google+ GCmap on LinkedIn

hCard Microformat

Geo Microformat